Terminal Aerodrome Forecast
Issued by NWS Tulsa, OK

Home | Current Version | Previous Version | Text Only | Print | Product List | Glossary On
Versions: 1 2 3 4 5 6 7 8 9 10 11 12 13 14 15 16 17 18
724
FTUS44 KTSA 301120
TAFFSM
TAF
KFSM 301120Z 3012/0112 25007KT P6SM SCT007 BKN100
     FM301400 20015G25KT P6SM OVC025
     FM301700 20025G35KT P6SM BKN050
     FM010200 25015G25KT P6SM OVC050=

USA.gov is the U.S. government's official web portal to all federal, state and local government web resources and services.